createdAt,value
2023-07-24T00:02:21.572Z,99867.09
2023-07-24T00:04:51.264Z,99876.88
2023-07-24T00:07:20.650Z,99868.34
2023-07-24T00:09:50.327Z,99872.72
2023-07-24T00:12:19.746Z,99875.94
2023-07-24T00:14:52.230Z,99874.47
2023-07-24T00:17:24.542Z,99864.69
2023-07-24T00:19:54.155Z,99866.28
2023-07-24T00:22:23.536Z,99864.34
2023-07-24T00:24:53.187Z,99851.22
2023-07-24T00:27:22.614Z,99847.06
2023-07-24T00:29:51.973Z,99851.22
2023-07-24T00:32:23.976Z,99851.66
2023-07-24T00:34:53.401Z,99848.91
2023-07-24T00:37:22.772Z,99855.03
2023-07-24T00:39:52.157Z,99850.91
2023-07-24T00:42:21.522Z,99854.91
2023-07-24T00:44:50.866Z,99856.97
2023-07-24T00:47:20.728Z,99848.16
2023-07-24T00:49:53.201Z,99843.03
2023-07-24T00:52:22.711Z,99840.94
2023-07-24T00:54:53.452Z,99842.84
2023-07-24T00:57:23.023Z,99848.16
2023-07-24T00:59:52.532Z,99837.84
2023-07-24T01:02:21.997Z,99832.56
2023-07-24T01:04:54.084Z,99839.00
2023-07-24T01:07:24.334Z,99838.88
2023-07-24T01:09:54.601Z,99838.53
2023-07-24T01:12:31.743Z,99828.25
2023-07-24T01:15:08.653Z,99827.97
2023-07-24T01:17:43.206Z,99826.31
2023-07-24T01:20:16.505Z,99828.56
2023-07-24T01:23:01.338Z,99826.44
2023-07-24T01:25:37.003Z,99829.22
2023-07-24T01:28:12.987Z,99820.34
2023-07-24T01:30:43.128Z,99824.19
2023-07-24T01:33:12.512Z,99816.19
2023-07-24T01:35:42.183Z,99813.94
2023-07-24T01:38:11.950Z,99818.28
2023-07-24T01:40:42.783Z,99804.97
2023-07-24T01:43:15.010Z,99818.59
2023-07-24T01:45:44.400Z,99814.41
2023-07-24T01:48:13.888Z,99823.56
2023-07-24T01:50:43.334Z,99816.81
2023-07-24T01:53:13.351Z,99814.44
2023-07-24T01:55:42.689Z,99816.34
2023-07-24T01:58:14.661Z,99817.00
2023-07-24T02:00:44.015Z,99814.09
2023-07-24T02:03:13.462Z,99813.66
2023-07-24T02:05:42.913Z,99820.59
2023-07-24T02:08:12.280Z,99812.84
2023-07-24T02:10:42.020Z,99808.81
2023-07-24T02:13:13.960Z,99807.38
2023-07-24T02:15:43.308Z,99804.16
2023-07-24T02:18:12.660Z,99807.06
2023-07-24T02:20:42.051Z,99806.47
2023-07-24T02:23:13.490Z,99802.41
2023-07-24T02:25:44.251Z,99810.78
2023-07-24T02:28:16.163Z,99808.06
2023-07-24T02:30:45.548Z,99807.38
2023-07-24T02:33:14.879Z,99797.75
2023-07-24T02:35:44.635Z,99806.28
2023-07-24T02:38:14.025Z,99807.66
2023-07-24T02:40:44.655Z,99809.00
2023-07-24T02:43:16.640Z,99803.06
2023-07-24T02:45:46.064Z,99811.06
2023-07-24T02:48:15.496Z,99818.75
2023-07-24T02:50:45.073Z,99814.59
2023-07-24T02:53:14.409Z,99814.25
2023-07-24T02:55:45.971Z,99809.75
2023-07-24T02:58:18.332Z,99807.06
2023-07-24T03:00:47.830Z,99811.06
2023-07-24T03:03:17.316Z,99803.66
2023-07-24T03:05:46.732Z,99804.44
2023-07-24T03:08:16.154Z,99809.94
2023-07-24T03:10:45.565Z,99816.66
2023-07-24T03:13:14.928Z,99807.03
2023-07-24T03:15:46.922Z,99821.19
2023-07-24T03:18:16.292Z,99814.16
2023-07-24T03:20:45.697Z,99824.72
2023-07-24T03:23:15.114Z,99818.94
2023-07-24T03:25:44.732Z,99826.59
2023-07-24T03:28:14.090Z,99823.72
2023-07-24T03:30:43.653Z,99819.06
2023-07-24T03:33:15.930Z,99811.53
2023-07-24T03:35:45.363Z,99804.66
2023-07-24T03:38:14.717Z,99806.06
2023-07-24T03:40:46.482Z,99798.53
2023-07-24T03:43:16.046Z,99795.50
2023-07-24T03:45:46.593Z,99803.34
2023-07-24T03:48:18.547Z,99809.47
2023-07-24T03:50:47.981Z,99796.75
2023-07-24T03:53:17.345Z,99798.22
2023-07-24T03:55:46.856Z,99811.53
2023-07-24T03:58:16.259Z,99813.28
2023-07-24T04:00:45.646Z,99817.34
2023-07-24T04:03:15.156Z,99806.06
2023-07-24T04:05:47.363Z,99804.47
2023-07-24T04:08:16.720Z,99808.97
2023-07-24T04:10:48.595Z,99811.69
2023-07-24T04:13:18.030Z,99801.09
2023-07-24T04:15:47.889Z,99791.78
2023-07-24T04:18:17.261Z,99788.38
2023-07-24T04:20:49.355Z,99787.47
2023-07-24T04:23:18.716Z,99790.78
2023-07-24T04:25:48.058Z,99778.78
2023-07-24T04:28:17.440Z,99775.28
2023-07-24T04:30:46.964Z,99782.34
2023-07-24T04:33:16.373Z,99785.84
2023-07-24T04:35:45.786Z,99777.47
2023-07-24T04:38:17.688Z,99772.69
2023-07-24T04:40:47.846Z,99778.78
2023-07-24T04:43:17.212Z,99772.44
2023-07-24T04:45:46.578Z,99769.22
2023-07-24T04:48:16.029Z,99770.19
2023-07-24T04:50:45.388Z,99765.44
2023-07-24T04:53:17.525Z,99764.09
2023-07-24T04:55:49.120Z,99765.22
2023-07-24T04:58:18.558Z,99760.75
2023-07-24T05:00:47.913Z,99767.81
2023-07-24T05:03:18.531Z,99762.50
2023-07-24T05:05:52.216Z,99760.22
2023-07-24T05:08:24.244Z,99765.22
2023-07-24T05:10:57.908Z,99759.22
2023-07-24T05:13:27.330Z,99762.13
2023-07-24T05:15:56.819Z,99757.19
2023-07-24T05:18:26.327Z,99757.59
2023-07-24T05:20:55.733Z,99756.88
2023-07-24T05:23:27.682Z,99751.72
2023-07-24T05:26:00.814Z,99746.91
2023-07-24T05:28:30.283Z,99748.31
2023-07-24T05:30:59.859Z,99749.41
2023-07-24T05:33:29.284Z,99751.78
2023-07-24T05:36:01.858Z,99750.09
2023-07-24T05:38:34.288Z,99748.97
2023-07-24T05:41:05.660Z,99755.53
2023-07-24T05:43:35.562Z,99746.53
2023-07-24T05:46:04.951Z,99734.44
2023-07-24T05:48:34.395Z,99724.19
2023-07-24T05:51:04.390Z,99727.25
2023-07-24T05:53:36.331Z,99728.69
2023-07-24T05:56:06.888Z,99717.59
2023-07-24T05:58:36.251Z,99710.63
2023-07-24T06:01:05.894Z,99718.28
2023-07-24T06:03:35.624Z,99713.03
2023-07-24T06:06:05.006Z,99714.75
2023-07-24T06:08:36.987Z,99717.97
2023-07-24T06:11:06.367Z,99719.75
2023-07-24T06:13:35.759Z,99722.75
2023-07-24T06:16:05.348Z,99703.25
2023-07-24T06:18:34.754Z,99710.56
2023-07-24T06:21:04.609Z,99711.97
2023-07-24T06:23:34.151Z,99701.84
2023-07-24T06:26:06.110Z,99702.47
2023-07-24T06:28:35.554Z,99708.97
2023-07-24T06:31:04.937Z,99703.81
2023-07-24T06:33:34.355Z,99699.97
2023-07-24T06:36:04.713Z,99701.78
2023-07-24T06:38:34.063Z,99702.88
2023-07-24T06:41:06.961Z,99703.97
2023-07-24T06:43:36.345Z,99696.31
2023-07-24T06:46:05.697Z,99701.19
2023-07-24T06:48:35.081Z,99700.13
2023-07-24T06:51:04.481Z,99699.13
2023-07-24T06:53:33.851Z,99690.19
2023-07-24T06:56:05.962Z,99697.31
2023-07-24T06:58:35.312Z,99696.50
2023-07-24T07:01:09.628Z,99685.47
2023-07-24T07:03:39.052Z,99690.81
2023-07-24T07:08:57.184Z,99686.41
2023-07-24T07:11:29.164Z,99691.06
2023-07-24T07:13:58.527Z,99682.28
2023-07-24T07:16:28.410Z,99683.03
2023-07-24T07:18:58.081Z,99688.63
2023-07-24T07:21:27.439Z,99690.53
2023-07-24T07:23:56.811Z,99688.00
2023-07-24T07:26:30.786Z,99681.59
2023-07-24T07:29:00.816Z,99673.22
2023-07-24T07:31:30.286Z,99680.81
2023-07-24T07:33:59.845Z,99688.94
2023-07-24T07:36:29.460Z,99691.22
2023-07-24T07:38:58.961Z,99694.28
2023-07-24T07:41:31.001Z,99701.66
2023-07-24T07:44:01.485Z,99698.06
2023-07-24T07:46:31.450Z,99702.66
2023-07-24T07:49:01.048Z,99706.47
2023-07-24T07:51:30.428Z,99700.56
2023-07-24T07:53:59.772Z,99707.19
2023-07-24T07:56:32.307Z,99705.41
2023-07-24T07:59:01.903Z,99699.97
2023-07-24T08:01:31.852Z,99705.91
2023-07-24T08:04:01.215Z,99711.94
2023-07-24T08:06:30.957Z,99713.34
2023-07-24T08:09:00.628Z,99707.88
2023-07-24T08:11:32.586Z,99707.94
2023-07-24T08:14:03.941Z,99701.78
2023-07-24T08:16:33.714Z,99711.94
2023-07-24T08:19:03.477Z,99702.44
2023-07-24T08:21:32.858Z,99702.88
2023-07-24T08:24:03.124Z,99696.72
2023-07-24T08:26:35.199Z,99694.16
2023-07-24T08:29:04.604Z,99687.38
2023-07-24T08:31:34.265Z,99679.59
2023-07-24T08:34:04.979Z,99681.34
2023-07-24T08:36:34.352Z,99682.38
2023-07-24T08:39:04.502Z,99684.53
2023-07-24T08:41:38.586Z,99683.19
2023-07-24T08:44:10.620Z,99687.84
2023-07-24T08:46:42.641Z,99685.72
2023-07-24T08:49:15.545Z,99676.00
2023-07-24T08:51:47.473Z,99687.03
2023-07-24T08:54:17.961Z,99680.53
2023-07-24T08:56:51.485Z,99684.13
2023-07-24T08:59:20.978Z,99674.22
2023-07-24T09:01:50.494Z,99681.78
2023-07-24T09:04:19.870Z,99677.94
2023-07-24T09:06:49.300Z,99684.91
2023-07-24T09:09:19.497Z,99684.91
2023-07-24T09:11:56.842Z,99677.34
2023-07-24T09:14:28.655Z,99672.63
2023-07-24T09:17:07.415Z,99667.81
2023-07-24T09:19:37.169Z,99669.47
2023-07-24T09:22:15.115Z,99655.75
2023-07-24T09:24:54.080Z,99667.06
2023-07-24T09:27:29.815Z,99669.94
2023-07-24T09:30:01.137Z,99670.63
2023-07-24T09:32:32.924Z,99678.81
2023-07-24T09:35:03.344Z,99664.63
2023-07-24T09:37:36.535Z,99666.63
2023-07-24T09:40:07.730Z,99661.53
2023-07-24T09:42:56.425Z,99667.41
2023-07-24T09:45:30.435Z,99672.13
2023-07-24T09:48:06.441Z,99675.75
2023-07-24T09:50:37.600Z,99664.22
2023-07-24T09:53:09.683Z,99663.50
2023-07-24T09:55:46.794Z,99665.75
2023-07-24T09:58:19.828Z,99671.00
2023-07-24T10:00:49.610Z,99662.81
2023-07-24T10:03:21.449Z,99661.16
2023-07-24T10:05:51.940Z,99650.31
2023-07-24T10:08:22.781Z,99661.47
2023-07-24T10:10:54.521Z,99660.50
2023-07-24T10:13:27.046Z,99662.09
2023-07-24T10:15:56.677Z,99657.03
2023-07-24T10:18:31.192Z,99649.69
2023-07-24T10:21:04.977Z,99657.16
2023-07-24T10:23:34.760Z,99647.50
2023-07-24T10:26:07.042Z,99645.44
2023-07-24T10:28:42.748Z,99644.03
2023-07-24T10:31:23.807Z,99638.38
2023-07-24T10:33:53.452Z,99638.72
2023-07-24T10:36:25.516Z,99641.50
2023-07-24T10:38:57.874Z,99643.91
2023-07-24T10:41:38.777Z,99645.00
2023-07-24T10:44:11.194Z,99655.94
2023-07-24T10:46:42.228Z,99638.97
2023-07-24T10:49:12.533Z,99638.06
2023-07-24T10:51:41.929Z,99634.91
2023-07-24T10:54:11.497Z,99631.22
2023-07-24T10:56:41.191Z,99634.09
2023-07-24T10:59:13.096Z,99626.59
2023-07-24T11:01:43.086Z,99629.34
2023-07-24T11:04:13.778Z,99628.06
2023-07-24T11:06:43.870Z,99630.91
2023-07-24T11:09:13.228Z,99631.97
2023-07-24T11:11:42.551Z,99625.47
2023-07-24T11:14:17.541Z,99623.66
2023-07-24T11:16:52.338Z,99629.00
2023-07-24T11:19:26.538Z,99613.31
2023-07-24T11:21:55.942Z,99623.41
2023-07-24T11:24:25.377Z,99616.25
2023-07-24T11:26:56.396Z,99599.75
2023-07-24T11:29:28.302Z,99605.00
2023-07-24T11:31:58.090Z,99604.31
2023-07-24T11:34:29.960Z,99599.41
2023-07-24T11:36:59.556Z,99608.06
2023-07-24T11:39:28.921Z,99597.03
2023-07-24T11:41:58.294Z,99584.84
2023-07-24T11:44:33.369Z,99592.69
2023-07-24T11:47:06.862Z,99596.03
2023-07-24T11:49:36.629Z,99586.47
2023-07-24T11:52:08.407Z,99590.91
2023-07-24T11:54:38.431Z,99600.72
2023-07-24T11:57:18.429Z,99602.69
2023-07-24T11:59:50.803Z,99595.19
2023-07-24T12:02:20.204Z,99588.84
2023-07-24T12:04:49.643Z,99590.03
2023-07-24T12:07:19.143Z,99588.75
2023-07-24T12:09:54.526Z,99577.47
2023-07-24T12:12:24.039Z,99579.75
2023-07-24T12:14:55.982Z,99561.97
2023-07-24T12:17:25.369Z,99563.44
2023-07-24T12:19:54.758Z,99573.69
2023-07-24T12:22:24.130Z,99575.19
2023-07-24T12:24:53.578Z,99559.53
2023-07-24T12:27:22.992Z,99572.41
2023-07-24T12:29:52.409Z,99574.09
2023-07-24T12:32:24.826Z,99565.44
2023-07-24T12:34:55.403Z,99565.09
2023-07-24T12:37:24.798Z,99564.19
2023-07-24T12:39:54.374Z,99567.03
2023-07-24T12:42:24.656Z,99555.72
2023-07-24T12:44:54.649Z,99554.34
2023-07-24T12:47:27.639Z,99537.72
2023-07-24T12:49:57.528Z,99527.75
2023-07-24T12:52:27.018Z,99526.06
2023-07-24T12:55:02.347Z,99521.84
2023-07-24T12:57:32.500Z,99523.91
2023-07-24T13:00:01.913Z,99512.19
2023-07-24T13:02:33.923Z,99505.94
2023-07-24T13:05:03.534Z,99505.94
2023-07-24T13:07:32.979Z,99510.00
2023-07-24T13:10:02.652Z,99506.06
2023-07-24T13:12:32.048Z,99503.72
2023-07-24T13:15:01.419Z,99495.34
2023-07-24T13:17:31.151Z,99499.44
2023-07-24T13:20:03.225Z,99497.50
2023-07-24T13:22:32.614Z,99494.06
2023-07-24T13:25:01.964Z,99497.81
2023-07-24T13:27:31.353Z,99500.66
2023-07-24T13:30:00.734Z,99500.66
2023-07-24T13:32:31.186Z,99501.28
2023-07-24T13:35:03.375Z,99506.00
2023-07-24T13:37:32.731Z,99501.63
2023-07-24T13:40:02.100Z,99496.69
2023-07-24T13:42:31.633Z,99493.69
2023-07-24T13:45:00.984Z,99495.66
2023-07-24T13:47:30.391Z,99484.78
2023-07-24T13:50:01.184Z,99490.06
2023-07-24T13:52:33.199Z,99478.22
2023-07-24T13:55:02.904Z,99483.69
2023-07-24T13:57:32.348Z,99472.56
2023-07-24T14:00:01.816Z,99459.22
2023-07-24T14:02:31.291Z,99474.06
2023-07-24T14:05:00.705Z,99474.34
2023-07-24T14:07:30.104Z,99477.34
2023-07-24T14:10:02.046Z,99469.00
2023-07-24T14:12:31.394Z,99468.31
2023-07-24T14:15:00.786Z,99451.28
2023-07-24T14:17:31.288Z,99445.53
2023-07-24T14:20:00.711Z,99438.00
2023-07-24T14:22:30.054Z,99436.41
2023-07-24T14:25:02.097Z,99429.50
2023-07-24T14:27:31.626Z,99438.09
2023-07-24T14:30:01.048Z,99433.13
2023-07-24T14:32:30.604Z,99438.34
2023-07-24T14:34:59.964Z,99441.81
2023-07-24T14:37:29.349Z,99438.97
2023-07-24T14:39:58.748Z,99436.50
2023-07-24T14:42:30.716Z,99433.84
2023-07-24T14:45:03.485Z,99430.38
2023-07-24T14:47:33.278Z,99426.88
2023-07-24T14:50:02.863Z,99436.13
2023-07-24T14:52:32.289Z,99443.22
2023-07-24T14:55:01.701Z,99435.78
2023-07-24T14:57:33.768Z,99426.16
2023-07-24T15:00:03.395Z,99429.00
2023-07-24T15:02:33.956Z,99412.63
2023-07-24T15:05:03.373Z,99412.56
2023-07-24T15:07:32.704Z,99414.75
2023-07-24T15:10:03.369Z,99406.00
2023-07-24T15:12:35.295Z,99412.34
2023-07-24T15:15:04.689Z,99403.88
2023-07-24T15:17:34.056Z,99408.84
2023-07-24T15:20:03.980Z,99407.06
2023-07-24T15:22:33.379Z,99410.06
2023-07-24T15:25:03.971Z,99406.44
2023-07-24T15:27:35.957Z,99402.22
2023-07-24T15:30:05.389Z,99406.53
2023-07-24T15:32:34.900Z,99409.97
2023-07-24T15:35:04.410Z,99401.31
2023-07-24T15:37:33.823Z,99397.88
2023-07-24T15:40:03.234Z,99401.31
2023-07-24T15:42:32.738Z,99390.97
2023-07-24T15:45:05.156Z,99370.13
2023-07-24T15:47:34.550Z,99375.22
2023-07-24T15:50:05.895Z,99369.06
2023-07-24T15:52:35.388Z,99366.94
2023-07-24T15:55:04.743Z,99358.91
2023-07-24T15:57:34.198Z,99363.66
2023-07-24T16:00:09.776Z,99366.78
2023-07-24T16:02:39.309Z,99378.97
2023-07-24T16:05:09.973Z,99375.22
2023-07-24T16:07:39.391Z,99380.44
2023-07-24T16:10:09.757Z,99374.06
2023-07-24T16:12:39.084Z,99369.41
2023-07-24T16:15:12.895Z,99365.50
2023-07-24T16:18:05.649Z,99363.28
2023-07-24T16:20:32.435Z,99387.00
2023-07-24T16:23:04.756Z,99387.06
2023-07-24T16:25:36.081Z,99382.22
2023-07-24T16:28:05.488Z,99379.47
2023-07-24T16:30:37.572Z,99392.47
2023-07-24T16:33:07.041Z,99393.25
2023-07-24T16:35:36.511Z,99398.13
2023-07-24T16:38:07.311Z,99387.44
2023-07-24T16:40:38.185Z,99392.22
2023-07-24T16:43:07.762Z,99395.38
2023-07-24T16:45:39.737Z,99384.06
2023-07-24T16:48:09.766Z,99386.47
2023-07-24T16:50:39.291Z,99399.47
2023-07-24T16:53:08.643Z,99406.97
2023-07-24T16:55:38.138Z,99421.38
2023-07-24T16:58:07.500Z,99441.25
2023-07-24T17:00:39.709Z,99442.88
2023-07-24T17:03:09.310Z,99437.69
2023-07-24T17:05:39.304Z,99432.28
2023-07-24T17:08:08.739Z,99446.09
2023-07-24T17:10:45.527Z,99435.66
2023-07-24T17:13:15.073Z,99450.19
2023-07-24T17:15:47.671Z,99461.44
2023-07-24T17:18:17.096Z,99470.91
2023-07-24T17:20:46.522Z,99461.34
2023-07-24T17:23:16.052Z,99454.97
2023-07-24T17:25:47.563Z,99454.59
2023-07-24T17:28:17.074Z,99447.69
2023-07-24T17:30:49.250Z,99449.38
2023-07-24T17:33:18.706Z,99449.53
2023-07-24T17:35:48.313Z,99452.53
2023-07-24T17:38:17.812Z,99450.41
2023-07-24T17:40:47.239Z,99479.69
2023-07-24T17:43:16.669Z,99499.72
2023-07-24T17:45:49.039Z,99523.88
2023-07-24T17:48:18.724Z,99524.34
2023-07-24T17:50:48.864Z,99524.25
2023-07-24T17:55:49.052Z,99531.06
2023-07-24T17:58:20.617Z,99525.53
2023-07-24T18:00:52.584Z,99500.28
2023-07-24T18:03:22.030Z,99508.31
2023-07-24T18:05:51.637Z,99512.69
2023-07-24T18:08:21.055Z,99507.94
2023-07-24T18:10:50.471Z,99503.84
2023-07-24T18:13:19.872Z,99497.69
2023-07-24T18:15:51.864Z,99500.91
2023-07-24T18:18:21.428Z,99507.41
2023-07-24T18:20:50.825Z,99502.00
2023-07-24T18:23:20.446Z,99490.41
2023-07-24T18:25:49.851Z,99486.66
2023-07-24T18:28:19.203Z,99457.91
2023-07-24T18:30:48.727Z,99461.22
2023-07-24T18:33:20.767Z,99450.97
2023-07-24T18:35:52.488Z,99451.44
2023-07-24T18:38:23.715Z,99457.25
2023-07-24T18:40:53.212Z,99463.63
2023-07-24T18:43:22.725Z,99470.44
2023-07-24T18:45:52.109Z,99474.91
2023-07-24T18:48:24.308Z,99490.75
2023-07-24T18:50:53.641Z,99494.88
2023-07-24T18:53:23.239Z,99499.41
2023-07-24T18:55:53.388Z,99511.94
2023-07-24T18:58:22.851Z,99514.09
2023-07-24T19:00:52.690Z,99515.69
2023-07-24T19:03:24.676Z,99524.50
2023-07-24T19:05:54.124Z,99523.00
2023-07-24T19:08:23.976Z,99523.00
2023-07-24T19:10:53.337Z,99530.56
2023-07-24T19:13:23.594Z,99531.41
2023-07-24T19:15:53.010Z,99534.63
2023-07-24T19:18:25.163Z,99543.28
2023-07-24T19:20:54.537Z,99540.66
2023-07-24T19:23:24.029Z,99549.88
2023-07-24T19:25:54.213Z,99564.19
2023-07-24T19:28:23.630Z,99560.06
2023-07-24T19:30:54.677Z,99555.09
2023-07-24T19:33:27.301Z,99561.47
2023-07-24T19:36:01.280Z,99571.00
2023-07-24T19:38:30.855Z,99576.59
2023-07-24T19:41:00.786Z,99577.88
2023-07-24T19:43:30.574Z,99583.53
2023-07-24T19:46:00.740Z,99589.91
2023-07-24T19:48:32.941Z,99589.47
2023-07-24T19:51:02.950Z,99592.09
2023-07-24T19:53:32.430Z,99597.66
2023-07-24T19:56:07.262Z,99601.78
2023-07-24T19:58:37.119Z,99604.94
2023-07-24T20:01:07.513Z,99604.03
2023-07-24T20:03:40.188Z,99610.44
2023-07-24T20:06:12.135Z,99604.63
2023-07-24T20:08:41.795Z,99596.84
2023-07-24T20:11:11.184Z,99602.44
2023-07-24T20:13:40.775Z,99604.44
2023-07-24T20:16:10.239Z,99608.25
2023-07-24T20:18:42.385Z,99620.72
2023-07-24T20:21:11.937Z,99616.06
2023-07-24T20:23:43.147Z,99615.34
2023-07-24T20:26:12.739Z,99613.22
2023-07-24T20:28:42.116Z,99617.06
2023-07-24T20:31:11.776Z,99627.06
2023-07-24T20:33:43.726Z,99621.59
2023-07-24T20:36:14.212Z,99621.00
2023-07-24T20:38:43.611Z,99618.00
2023-07-24T20:41:13.476Z,99618.63
2023-07-24T20:43:43.194Z,99625.91
2023-07-24T20:46:14.289Z,99635.31
2023-07-24T20:48:47.007Z,99635.91
2023-07-24T20:51:21.535Z,99644.16
2023-07-24T20:53:51.760Z,99632.47
2023-07-24T20:56:23.976Z,99641.91
2023-07-24T20:58:53.684Z,99636.47
2023-07-24T21:01:24.387Z,99650.63
2023-07-24T21:03:57.375Z,99649.22
2023-07-24T21:06:26.885Z,99649.06
2023-07-24T21:08:56.329Z,99652.16
2023-07-24T21:11:26.021Z,99652.06
2023-07-24T21:13:55.364Z,99653.41
2023-07-24T21:16:25.096Z,99658.06
2023-07-24T21:18:57.152Z,99653.91
2023-07-24T21:21:26.682Z,99653.59
2023-07-24T21:23:56.128Z,99650.56
2023-07-24T21:26:23.372Z,99661.00
2023-07-24T21:28:52.780Z,99660.94
2023-07-24T21:31:22.160Z,99662.47
2023-07-24T21:33:51.595Z,99660.72
2023-07-24T21:36:23.557Z,99654.88
2023-07-24T21:38:52.931Z,99657.03
2023-07-24T21:41:22.373Z,99656.66
2023-07-24T21:43:51.731Z,99664.72
2023-07-24T21:46:21.154Z,99659.81
2023-07-24T21:48:50.534Z,99664.81
2023-07-24T21:51:19.909Z,99667.66
2023-07-24T21:53:51.894Z,99678.16
2023-07-24T21:56:21.356Z,99680.41
2023-07-24T21:58:51.127Z,99685.53
2023-07-24T22:01:21.460Z,99689.34
2023-07-24T22:03:50.950Z,99685.63
2023-07-24T22:06:20.404Z,99691.16
2023-07-24T22:08:52.572Z,99697.50
2023-07-24T22:11:22.755Z,99693.84
2023-07-24T22:13:52.159Z,99701.22
2023-07-24T22:16:21.567Z,99705.22
2023-07-24T22:18:50.954Z,99703.31
2023-07-24T22:21:20.312Z,99707.94
2023-07-24T22:23:52.415Z,99707.38
2023-07-24T22:26:22.269Z,99721.16
2023-07-24T22:28:51.642Z,99713.16
2023-07-24T22:31:21.253Z,99720.25
2023-07-24T22:33:50.652Z,99724.41
2023-07-24T22:36:20.062Z,99727.00
2023-07-24T22:38:52.041Z,99725.16
2023-07-24T22:41:24.728Z,99725.72
2023-07-24T22:43:54.101Z,99727.66
2023-07-24T22:46:23.501Z,99721.78
2023-07-24T22:48:52.912Z,99730.03
2023-07-24T22:51:22.393Z,99733.22
2023-07-24T22:53:54.422Z,99729.28
2023-07-24T22:56:23.804Z,99733.53
2023-07-24T22:59:23.221Z,99740.13
2023-07-24T23:01:53.974Z,99735.97
2023-07-24T23:04:25.561Z,99736.94
2023-07-24T23:06:55.820Z,99743.00
2023-07-24T23:09:27.825Z,99744.16
2023-07-24T23:11:57.287Z,99741.41
2023-07-24T23:14:26.844Z,99746.22
2023-07-24T23:16:56.546Z,99746.69
2023-07-24T23:19:25.904Z,99744.47
2023-07-24T23:21:55.273Z,99747.50
2023-07-24T23:24:27.397Z,99746.06
2023-07-24T23:26:58.012Z,99757.75
2023-07-24T23:29:27.385Z,99757.75
2023-07-24T23:31:57.245Z,99754.25
2023-07-24T23:34:26.610Z,99757.44
2023-07-24T23:36:56.149Z,99759.69
2023-07-24T23:39:28.059Z,99763.22
2023-07-24T23:41:57.542Z,99753.28
2023-07-24T23:44:26.888Z,99762.25
2023-07-24T23:46:56.215Z,99758.56
2023-07-24T23:49:25.610Z,99761.09
2023-07-24T23:51:54.966Z,99758.53
2023-07-24T23:54:24.318Z,99770.06
2023-07-24T23:56:56.278Z,99773.63
2023-07-24T23:59:25.628Z,99769.09
